sensor_id;sensor_type;location;lat;lon;timestamp;P1;durP1;ratioP1;P2;durP2;ratioP2
63346;SDS011;49472;49.880;8.650;2022-08-21T00:00:05;19.23;;;17.70;;
63346;SDS011;49472;49.880;8.650;2022-08-21T00:02:31;20.05;;;18.25;;
63346;SDS011;49472;49.880;8.650;2022-08-21T00:04:56;19.08;;;17.42;;
63346;SDS011;49472;49.880;8.650;2022-08-21T00:07:22;19.50;;;17.48;;
63346;SDS011;49472;49.880;8.650;2022-08-21T00:09:47;19.35;;;17.55;;
63346;SDS011;49472;49.880;8.650;2022-08-21T00:12:12;19.80;;;17.90;;
63346;SDS011;49472;49.880;8.650;2022-08-21T00:14:38;22.05;;;18.95;;
63346;SDS011;49472;49.880;8.650;2022-08-21T00:17:04;20.63;;;18.75;;
63346;SDS011;49472;49.880;8.650;2022-08-21T00:19:29;20.23;;;18.25;;
63346;SDS011;49472;49.880;8.650;2022-08-21T00:21:55;18.85;;;16.88;;
63346;SDS011;49472;49.880;8.650;2022-08-21T00:24:21;20.55;;;18.65;;
63346;SDS011;49472;49.880;8.650;2022-08-21T00:26:47;19.88;;;18.17;;
63346;SDS011;49472;49.880;8.650;2022-08-21T00:29:12;19.15;;;17.42;;
63346;SDS011;49472;49.880;8.650;2022-08-21T00:31:38;20.08;;;18.08;;
63346;SDS011;49472;49.880;8.650;2022-08-21T00:34:04;19.50;;;17.67;;
63346;SDS011;49472;49.880;8.650;2022-08-21T00:36:29;19.05;;;17.52;;
63346;SDS011;49472;49.880;8.650;2022-08-21T00:38:55;20.27;;;18.65;;
63346;SDS011;49472;49.880;8.650;2022-08-21T00:41:21;20.45;;;18.27;;
63346;SDS011;49472;49.880;8.650;2022-08-21T00:43:47;20.23;;;18.17;;
63346;SDS011;49472;49.880;8.650;2022-08-21T00:46:13;18.80;;;17.23;;
63346;SDS011;49472;49.880;8.650;2022-08-21T00:48:38;21.42;;;19.13;;
63346;SDS011;49472;49.880;8.650;2022-08-21T00:51:07;19.88;;;18.17;;
63346;SDS011;49472;49.880;8.650;2022-08-21T00:53:34;19.25;;;17.75;;
63346;SDS011;49472;49.880;8.650;2022-08-21T00:56:01;21.30;;;18.63;;
63346;SDS011;49472;49.880;8.650;2022-08-21T00:58:28;20.85;;;18.90;;
63346;SDS011;49472;49.880;8.650;2022-08-21T01:00:55;19.63;;;17.90;;
63346;SDS011;49472;49.880;8.650;2022-08-21T01:03:22;19.70;;;18.10;;
63346;SDS011;49472;49.880;8.650;2022-08-21T01:05:48;19.25;;;17.55;;
63346;SDS011;49472;49.880;8.650;2022-08-21T01:08:14;21.95;;;19.63;;
63346;SDS011;49472;49.880;8.650;2022-08-21T01:10:40;20.40;;;18.77;;
63346;SDS011;49472;49.880;8.650;2022-08-21T01:13:06;20.83;;;18.92;;
63346;SDS011;49472;49.880;8.650;2022-08-21T01:15:34;21.40;;;19.35;;
63346;SDS011;49472;49.880;8.650;2022-08-21T01:17:59;21.25;;;19.38;;
63346;SDS011;49472;49.880;8.650;2022-08-21T01:20:25;21.65;;;19.70;;
63346;SDS011;49472;49.880;8.650;2022-08-21T01:22:50;21.45;;;19.30;;
63346;SDS011;49472;49.880;8.650;2022-08-21T01:25:16;19.53;;;17.90;;
63346;SDS011;49472;49.880;8.650;2022-08-21T01:27:42;21.35;;;19.23;;
63346;SDS011;49472;49.880;8.650;2022-08-21T01:30:09;25.48;;;19.88;;
63346;SDS011;49472;49.880;8.650;2022-08-21T01:32:34;24.57;;;19.03;;
63346;SDS011;49472;49.880;8.650;2022-08-21T01:35:00;21.50;;;19.50;;
63346;SDS011;49472;49.880;8.650;2022-08-21T01:37:25;22.10;;;20.07;;
63346;SDS011;49472;49.880;8.650;2022-08-21T01:39:50;21.43;;;19.27;;
63346;SDS011;49472;49.880;8.650;2022-08-21T01:42:16;21.80;;;19.70;;
63346;SDS011;49472;49.880;8.650;2022-08-21T01:44:41;21.50;;;19.23;;
63346;SDS011;49472;49.880;8.650;2022-08-21T01:47:07;20.57;;;19.00;;
63346;SDS011;49472;49.880;8.650;2022-08-21T01:49:33;20.07;;;18.47;;
63346;SDS011;49472;49.880;8.650;2022-08-21T01:51:58;21.83;;;19.40;;
63346;SDS011;49472;49.880;8.650;2022-08-21T01:54:24;19.50;;;18.00;;
63346;SDS011;49472;49.880;8.650;2022-08-21T01:56:50;20.70;;;18.97;;
63346;SDS011;49472;49.880;8.650;2022-08-21T01:59:16;21.30;;;19.20;;
63346;SDS011;49472;49.880;8.650;2022-08-21T02:01:41;21.13;;;19.03;;
63346;SDS011;49472;49.880;8.650;2022-08-21T02:04:07;26.30;;;18.60;;
63346;SDS011;49472;49.880;8.650;2022-08-21T02:06:33;19.73;;;18.03;;
63346;SDS011;49472;49.880;8.650;2022-08-21T02:08:59;21.30;;;19.40;;
63346;SDS011;49472;49.880;8.650;2022-08-21T02:11:25;20.60;;;18.73;;
63346;SDS011;49472;49.880;8.650;2022-08-21T02:13:50;18.83;;;17.27;;
63346;SDS011;49472;49.880;8.650;2022-08-21T02:16:15;18.87;;;17.27;;
63346;SDS011;49472;49.880;8.650;2022-08-21T02:18:41;20.10;;;18.00;;
63346;SDS011;49472;49.880;8.650;2022-08-21T02:21:06;19.57;;;17.73;;
63346;SDS011;49472;49.880;8.650;2022-08-21T02:23:32;19.53;;;17.47;;
63346;SDS011;49472;49.880;8.650;2022-08-21T02:25:58;20.30;;;18.03;;
63346;SDS011;49472;49.880;8.650;2022-08-21T02:28:23;20.60;;;18.47;;
63346;SDS011;49472;49.880;8.650;2022-08-21T02:30:49;21.40;;;18.30;;
63346;SDS011;49472;49.880;8.650;2022-08-21T02:33:15;20.07;;;17.93;;
63346;SDS011;49472;49.880;8.650;2022-08-21T02:35:41;19.30;;;17.47;;
63346;SDS011;49472;49.880;8.650;2022-08-21T02:38:08;25.73;;;18.43;;
63346;SDS011;49472;49.880;8.650;2022-08-21T02:40:35;19.33;;;17.50;;
63346;SDS011;49472;49.880;8.650;2022-08-21T02:43:01;19.30;;;17.53;;
63346;SDS011;49472;49.880;8.650;2022-08-21T02:45:27;19.97;;;17.17;;
63346;SDS011;49472;49.880;8.650;2022-08-21T02:47:55;19.20;;;17.40;;
63346;SDS011;49472;49.880;8.650;2022-08-21T02:50:25;19.43;;;17.63;;
63346;SDS011;49472;49.880;8.650;2022-08-21T02:52:51;22.63;;;18.10;;
63346;SDS011;49472;49.880;8.650;2022-08-21T02:55:17;20.33;;;17.90;;
63346;SDS011;49472;49.880;8.650;2022-08-21T02:57:43;19.63;;;17.57;;
63346;SDS011;49472;49.880;8.650;2022-08-21T03:00:08;19.00;;;17.33;;
63346;SDS011;49472;49.880;8.650;2022-08-21T03:02:35;19.63;;;17.70;;
63346;SDS011;49472;49.880;8.650;2022-08-21T03:05:01;20.67;;;18.03;;
63346;SDS011;49472;49.880;8.650;2022-08-21T03:07:26;23.07;;;18.77;;
63346;SDS011;49472;49.880;8.650;2022-08-21T03:09:52;19.50;;;17.80;;
63346;SDS011;49472;49.880;8.650;2022-08-21T03:12:17;19.70;;;17.87;;
63346;SDS011;49472;49.880;8.650;2022-08-21T03:14:42;20.47;;;18.63;;
63346;SDS011;49472;49.880;8.650;2022-08-21T03:17:07;20.30;;;18.03;;
63346;SDS011;49472;49.880;8.650;2022-08-21T03:19:32;19.87;;;17.80;;
63346;SDS011;49472;49.880;8.650;2022-08-21T03:21:58;24.53;;;18.60;;
63346;SDS011;49472;49.880;8.650;2022-08-21T03:24:23;19.87;;;17.80;;
63346;SDS011;49472;49.880;8.650;2022-08-21T03:26:48;25.07;;;17.80;;
63346;SDS011;49472;49.880;8.650;2022-08-21T03:29:13;20.30;;;18.47;;
63346;SDS011;49472;49.880;8.650;2022-08-21T03:31:39;19.57;;;17.87;;
63346;SDS011;49472;49.880;8.650;2022-08-21T03:34:04;21.20;;;17.63;;
63346;SDS011;49472;49.880;8.650;2022-08-21T03:36:29;22.97;;;19.20;;
63346;SDS011;49472;49.880;8.650;2022-08-21T03:38:55;20.67;;;18.50;;
63346;SDS011;49472;49.880;8.650;2022-08-21T03:41:20;21.30;;;16.93;;
63346;SDS011;49472;49.880;8.650;2022-08-21T03:43:45;20.20;;;18.07;;
63346;SDS011;49472;49.880;8.650;2022-08-21T03:46:10;29.60;;;20.50;;
63346;SDS011;49472;49.880;8.650;2022-08-21T03:48:36;22.10;;;18.80;;
63346;SDS011;49472;49.880;8.650;2022-08-21T03:51:01;19.30;;;17.60;;
63346;SDS011;49472;49.880;8.650;2022-08-21T03:53:27;19.87;;;17.87;;
63346;SDS011;49472;49.880;8.650;2022-08-21T03:55:53;19.43;;;17.53;;
63346;SDS011;49472;49.880;8.650;2022-08-21T03:58:22;25.90;;;18.10;;
63346;SDS011;49472;49.880;8.650;2022-08-21T04:00:49;21.57;;;19.07;;
63346;SDS011;49472;49.880;8.650;2022-08-21T04:03:15;24.80;;;17.97;;
63346;SDS011;49472;49.880;8.650;2022-08-21T04:05:40;20.50;;;17.60;;
63346;SDS011;49472;49.880;8.650;2022-08-21T04:08:06;20.33;;;18.23;;
63346;SDS011;49472;49.880;8.650;2022-08-21T04:10:33;20.90;;;18.77;;
63346;SDS011;49472;49.880;8.650;2022-08-21T04:12:59;20.03;;;17.70;;
63346;SDS011;49472;49.880;8.650;2022-08-21T04:15:25;25.40;;;18.43;;
63346;SDS011;49472;49.880;8.650;2022-08-21T04:17:50;21.43;;;18.40;;
63346;SDS011;49472;49.880;8.650;2022-08-21T04:20:19;18.93;;;17.00;;
63346;SDS011;49472;49.880;8.650;2022-08-21T04:22:44;19.03;;;17.47;;
63346;SDS011;49472;49.880;8.650;2022-08-21T04:25:11;19.50;;;17.80;;
63346;SDS011;49472;49.880;8.650;2022-08-21T04:27:36;20.13;;;18.10;;
63346;SDS011;49472;49.880;8.650;2022-08-21T04:30:03;20.30;;;18.33;;
63346;SDS011;49472;49.880;8.650;2022-08-21T04:32:28;19.23;;;17.43;;
63346;SDS011;49472;49.880;8.650;2022-08-21T04:35:00;21.50;;;17.40;;
63346;SDS011;49472;49.880;8.650;2022-08-21T04:37:26;21.57;;;17.40;;
63346;SDS011;49472;49.880;8.650;2022-08-21T04:39:51;18.80;;;17.27;;
63346;SDS011;49472;49.880;8.650;2022-08-21T04:42:16;18.90;;;16.90;;
63346;SDS011;49472;49.880;8.650;2022-08-21T04:44:42;20.00;;;17.30;;
63346;SDS011;49472;49.880;8.650;2022-08-21T04:47:07;21.90;;;17.67;;
63346;SDS011;49472;49.880;8.650;2022-08-21T04:49:33;20.40;;;17.93;;
63346;SDS011;49472;49.880;8.650;2022-08-21T04:51:58;19.57;;;17.67;;
63346;SDS011;49472;49.880;8.650;2022-08-21T04:54:23;19.70;;;17.83;;
63346;SDS011;49472;49.880;8.650;2022-08-21T04:56:56;20.73;;;18.63;;
63346;SDS011;49472;49.880;8.650;2022-08-21T04:59:26;21.50;;;19.30;;
63346;SDS011;49472;49.880;8.650;2022-08-21T05:01:53;20.87;;;18.37;;
63346;SDS011;49472;49.880;8.650;2022-08-21T05:04:21;26.03;;;18.63;;
63346;SDS011;49472;49.880;8.650;2022-08-21T05:06:49;18.43;;;17.10;;
63346;SDS011;49472;49.880;8.650;2022-08-21T05:09:15;20.53;;;18.43;;
63346;SDS011;49472;49.880;8.650;2022-08-21T05:11:42;19.10;;;17.27;;
63346;SDS011;49472;49.880;8.650;2022-08-21T05:14:07;19.87;;;17.90;;
63346;SDS011;49472;49.880;8.650;2022-08-21T05:16:33;21.77;;;19.47;;
63346;SDS011;49472;49.880;8.650;2022-08-21T05:18:58;19.57;;;17.97;;
63346;SDS011;49472;49.880;8.650;2022-08-21T05:21:23;19.73;;;17.63;;
63346;SDS011;49472;49.880;8.650;2022-08-21T05:23:48;19.93;;;18.20;;
63346;SDS011;49472;49.880;8.650;2022-08-21T05:26:14;19.70;;;17.57;;
63346;SDS011;49472;49.880;8.650;2022-08-21T05:28:39;22.50;;;17.23;;
63346;SDS011;49472;49.880;8.650;2022-08-21T05:31:04;19.97;;;17.73;;
63346;SDS011;49472;49.880;8.650;2022-08-21T05:33:29;20.20;;;18.50;;
63346;SDS011;49472;49.880;8.650;2022-08-21T05:35:55;21.70;;;18.23;;
63346;SDS011;49472;49.880;8.650;2022-08-21T05:38:21;19.67;;;17.80;;
63346;SDS011;49472;49.880;8.650;2022-08-21T05:40:46;21.23;;;19.13;;
63346;SDS011;49472;49.880;8.650;2022-08-21T05:43:11;19.43;;;17.83;;
63346;SDS011;49472;49.880;8.650;2022-08-21T05:45:37;19.60;;;17.43;;
63346;SDS011;49472;49.880;8.650;2022-08-21T05:48:06;19.10;;;17.50;;
63346;SDS011;49472;49.880;8.650;2022-08-21T05:50:31;18.80;;;16.80;;
63346;SDS011;49472;49.880;8.650;2022-08-21T05:52:56;19.93;;;18.03;;
63346;SDS011;49472;49.880;8.650;2022-08-21T05:55:22;19.13;;;17.27;;
63346;SDS011;49472;49.880;8.650;2022-08-21T05:57:47;18.97;;;17.17;;
63346;SDS011;49472;49.880;8.650;2022-08-21T06:00:13;19.50;;;17.60;;
63346;SDS011;49472;49.880;8.650;2022-08-21T06:02:39;19.80;;;17.80;;
63346;SDS011;49472;49.880;8.650;2022-08-21T06:05:04;19.47;;;17.30;;
63346;SDS011;49472;49.880;8.650;2022-08-21T06:07:30;21.53;;;17.77;;
63346;SDS011;49472;49.880;8.650;2022-08-21T06:09:55;20.33;;;18.17;;
63346;SDS011;49472;49.880;8.650;2022-08-21T06:12:20;23.97;;;17.10;;
63346;SDS011;49472;49.880;8.650;2022-08-21T06:14:45;18.93;;;17.10;;
63346;SDS011;49472;49.880;8.650;2022-08-21T06:17:11;21.40;;;19.10;;
63346;SDS011;49472;49.880;8.650;2022-08-21T06:19:37;20.60;;;18.60;;
63346;SDS011;49472;49.880;8.650;2022-08-21T06:22:02;24.73;;;17.20;;
63346;SDS011;49472;49.880;8.650;2022-08-21T06:24:28;19.50;;;16.90;;
63346;SDS011;49472;49.880;8.650;2022-08-21T06:26:53;20.60;;;17.87;;
63346;SDS011;49472;49.880;8.650;2022-08-21T06:29:19;23.13;;;17.83;;
63346;SDS011;49472;49.880;8.650;2022-08-21T06:31:45;18.50;;;16.60;;
63346;SDS011;49472;49.880;8.650;2022-08-21T06:34:10;19.23;;;17.33;;
63346;SDS011;49472;49.880;8.650;2022-08-21T06:36:35;25.63;;;17.87;;
63346;SDS011;49472;49.880;8.650;2022-08-21T06:39:01;18.97;;;17.07;;
63346;SDS011;49472;49.880;8.650;2022-08-21T06:41:26;18.50;;;16.58;;
63346;SDS011;49472;49.880;8.650;2022-08-21T06:43:51;28.80;;;18.67;;
63346;SDS011;49472;49.880;8.650;2022-08-21T06:46:17;18.67;;;16.97;;
63346;SDS011;49472;49.880;8.650;2022-08-21T06:48:42;20.63;;;18.10;;
63346;SDS011;49472;49.880;8.650;2022-08-21T06:51:07;17.30;;;15.80;;
63346;SDS011;49472;49.880;8.650;2022-08-21T06:53:32;19.80;;;17.67;;
63346;SDS011;49472;49.880;8.650;2022-08-21T06:55:58;19.30;;;17.40;;
63346;SDS011;49472;49.880;8.650;2022-08-21T06:58:23;18.67;;;16.90;;
63346;SDS011;49472;49.880;8.650;2022-08-21T07:00:49;18.92;;;17.00;;
63346;SDS011;49472;49.880;8.650;2022-08-21T07:03:17;19.33;;;17.23;;
63346;SDS011;49472;49.880;8.650;2022-08-21T07:05:43;18.43;;;16.70;;
63346;SDS011;49472;49.880;8.650;2022-08-21T07:08:08;18.08;;;16.45;;
63346;SDS011;49472;49.880;8.650;2022-08-21T07:10:33;18.88;;;17.05;;
63346;SDS011;49472;49.880;8.650;2022-08-21T07:12:58;19.30;;;17.30;;
63346;SDS011;49472;49.880;8.650;2022-08-21T07:15:24;19.88;;;18.00;;
63346;SDS011;49472;49.880;8.650;2022-08-21T07:17:49;19.75;;;17.88;;
63346;SDS011;49472;49.880;8.650;2022-08-21T07:20:14;19.15;;;17.30;;
63346;SDS011;49472;49.880;8.650;2022-08-21T07:22:40;18.35;;;16.55;;
63346;SDS011;49472;49.880;8.650;2022-08-21T07:25:06;20.38;;;16.45;;
63346;SDS011;49472;49.880;8.650;2022-08-21T07:27:31;18.58;;;16.90;;
63346;SDS011;49472;49.880;8.650;2022-08-21T07:29:57;19.77;;;17.60;;
63346;SDS011;49472;49.880;8.650;2022-08-21T07:32:22;17.50;;;15.73;;
63346;SDS011;49472;49.880;8.650;2022-08-21T07:34:48;20.67;;;18.20;;
63346;SDS011;49472;49.880;8.650;2022-08-21T07:37:13;23.05;;;18.00;;
63346;SDS011;49472;49.880;8.650;2022-08-21T07:39:38;18.88;;;17.05;;
63346;SDS011;49472;49.880;8.650;2022-08-21T07:42:03;19.60;;;17.58;;
63346;SDS011;49472;49.880;8.650;2022-08-21T07:44:29;21.50;;;17.85;;
63346;SDS011;49472;49.880;8.650;2022-08-21T07:46:54;19.88;;;17.88;;
63346;SDS011;49472;49.880;8.650;2022-08-21T07:49:19;19.98;;;18.10;;
63346;SDS011;49472;49.880;8.650;2022-08-21T07:51:44;19.08;;;17.38;;
63346;SDS011;49472;49.880;8.650;2022-08-21T07:54:10;18.98;;;17.17;;
63346;SDS011;49472;49.880;8.650;2022-08-21T07:56:35;17.90;;;16.38;;
63346;SDS011;49472;49.880;8.650;2022-08-21T07:59:01;21.02;;;18.90;;
63346;SDS011;49472;49.880;8.650;2022-08-21T08:01:27;21.38;;;18.48;;
63346;SDS011;49472;49.880;8.650;2022-08-21T08:03:52;20.73;;;18.45;;
63346;SDS011;49472;49.880;8.650;2022-08-21T08:06:18;19.83;;;17.92;;
63346;SDS011;49472;49.880;8.650;2022-08-21T08:08:44;19.33;;;17.45;;
63346;SDS011;49472;49.880;8.650;2022-08-21T08:11:09;23.33;;;17.45;;
63346;SDS011;49472;49.880;8.650;2022-08-21T08:13:44;18.92;;;17.10;;
63346;SDS011;49472;49.880;8.650;2022-08-21T08:16:10;19.85;;;18.13;;
63346;SDS011;49472;49.880;8.650;2022-08-21T08:18:35;18.48;;;16.77;;
63346;SDS011;49472;49.880;8.650;2022-08-21T08:21:00;20.73;;;18.38;;
63346;SDS011;49472;49.880;8.650;2022-08-21T08:23:26;19.83;;;18.00;;
63346;SDS011;49472;49.880;8.650;2022-08-21T08:25:52;21.05;;;17.80;;
63346;SDS011;49472;49.880;8.650;2022-08-21T08:28:17;17.60;;;16.10;;
63346;SDS011;49472;49.880;8.650;2022-08-21T08:30:46;19.90;;;17.88;;
63346;SDS011;49472;49.880;8.650;2022-08-21T08:33:11;20.45;;;18.48;;
63346;SDS011;49472;49.880;8.650;2022-08-21T08:35:36;19.60;;;17.92;;
63346;SDS011;49472;49.880;8.650;2022-08-21T08:38:02;19.55;;;17.92;;
63346;SDS011;49472;49.880;8.650;2022-08-21T08:40:32;19.35;;;17.65;;
63346;SDS011;49472;49.880;8.650;2022-08-21T08:43:00;19.20;;;17.42;;
63346;SDS011;49472;49.880;8.650;2022-08-21T08:45:26;20.35;;;17.95;;
63346;SDS011;49472;49.880;8.650;2022-08-21T08:47:59;19.23;;;17.58;;
63346;SDS011;49472;49.880;8.650;2022-08-21T08:50:47;21.98;;;18.92;;
63346;SDS011;49472;49.880;8.650;2022-08-21T08:53:34;20.02;;;18.10;;
63346;SDS011;49472;49.880;8.650;2022-08-21T08:55:56;18.60;;;17.00;;
63346;SDS011;49472;49.880;8.650;2022-08-21T08:58:33;20.73;;;18.83;;
63346;SDS011;49472;49.880;8.650;2022-08-21T09:00:59;23.63;;;19.13;;
63346;SDS011;49472;49.880;8.650;2022-08-21T09:03:25;22.13;;;20.13;;
63346;SDS011;49472;49.880;8.650;2022-08-21T09:11:04;18.70;;;17.02;;
63346;SDS011;49472;49.880;8.650;2022-08-21T09:24:18;20.98;;;15.48;;
63346;SDS011;49472;49.880;8.650;2022-08-21T09:26:54;15.07;;;13.50;;
63346;SDS011;49472;49.880;8.650;2022-08-21T09:29:22;15.10;;;13.52;;
63346;SDS011;49472;49.880;8.650;2022-08-21T09:31:48;16.55;;;15.05;;
63346;SDS011;49472;49.880;8.650;2022-08-21T09:34:23;22.48;;;15.38;;
63346;SDS011;49472;49.880;8.650;2022-08-21T09:36:49;17.52;;;15.90;;
63346;SDS011;49472;49.880;8.650;2022-08-21T09:39:29;15.88;;;14.48;;
63346;SDS011;49472;49.880;8.650;2022-08-21T09:41:55;18.52;;;16.63;;
63346;SDS011;49472;49.880;8.650;2022-08-21T09:44:25;19.20;;;17.23;;
63346;SDS011;49472;49.880;8.650;2022-08-21T09:46:50;17.10;;;15.60;;
63346;SDS011;49472;49.880;8.650;2022-08-21T09:49:25;19.63;;;14.38;;
63346;SDS011;49472;49.880;8.650;2022-08-21T09:51:51;15.68;;;14.02;;
63346;SDS011;49472;49.880;8.650;2022-08-21T09:54:19;20.10;;;14.75;;
63346;SDS011;49472;49.880;8.650;2022-08-21T09:56:57;18.38;;;15.02;;
63346;SDS011;49472;49.880;8.650;2022-08-21T09:59:42;16.35;;;14.93;;
63346;SDS011;49472;49.880;8.650;2022-08-21T10:04:49;15.88;;;14.57;;
63346;SDS011;49472;49.880;8.650;2022-08-21T10:07:14;15.35;;;14.02;;
63346;SDS011;49472;49.880;8.650;2022-08-21T10:09:40;14.32;;;13.40;;
63346;SDS011;49472;49.880;8.650;2022-08-21T10:24:43;15.48;;;13.82;;
63346;SDS011;49472;49.880;8.650;2022-08-21T10:34:41;15.60;;;13.57;;
63346;SDS011;49472;49.880;8.650;2022-08-21T10:44:45;17.52;;;13.95;;
63346;SDS011;49472;49.880;8.650;2022-08-21T10:47:17;15.50;;;14.00;;
63346;SDS011;49472;49.880;8.650;2022-08-21T10:54:54;14.95;;;13.73;;
63346;SDS011;49472;49.880;8.650;2022-08-21T10:57:40;15.20;;;13.80;;
63346;SDS011;49472;49.880;8.650;2022-08-21T11:00:09;14.82;;;13.43;;
63346;SDS011;49472;49.880;8.650;2022-08-21T11:05:14;14.63;;;13.45;;
63346;SDS011;49472;49.880;8.650;2022-08-21T11:15:48;13.85;;;12.85;;
63346;SDS011;49472;49.880;8.650;2022-08-21T11:18:26;15.45;;;13.80;;
63346;SDS011;49472;49.880;8.650;2022-08-21T11:21:01;14.75;;;13.32;;
63346;SDS011;49472;49.880;8.650;2022-08-21T11:23:37;15.13;;;13.75;;
63346;SDS011;49472;49.880;8.650;2022-08-21T11:26:46;14.75;;;13.45;;
63346;SDS011;49472;49.880;8.650;2022-08-21T11:28:53;15.20;;;12.80;;
63346;SDS011;49472;49.880;8.650;2022-08-21T11:31:23;13.73;;;12.73;;
63346;SDS011;49472;49.880;8.650;2022-08-21T11:33:57;13.98;;;12.88;;
63346;SDS011;49472;49.880;8.650;2022-08-21T11:47:01;14.13;;;12.82;;
63346;SDS011;49472;49.880;8.650;2022-08-21T11:52:16;13.13;;;12.10;;
63346;SDS011;49472;49.880;8.650;2022-08-21T11:57:17;13.25;;;12.32;;
63346;SDS011;49472;49.880;8.650;2022-08-21T11:59:49;13.88;;;12.55;;
63346;SDS011;49472;49.880;8.650;2022-08-21T12:02:18;13.75;;;12.57;;
63346;SDS011;49472;49.880;8.650;2022-08-21T12:05:31;13.52;;;12.20;;
63346;SDS011;49472;49.880;8.650;2022-08-21T12:09:56;13.50;;;12.30;;
63346;SDS011;49472;49.880;8.650;2022-08-21T12:15:16;12.25;;;11.10;;
63346;SDS011;49472;49.880;8.650;2022-08-21T12:17:40;11.98;;;11.13;;
63346;SDS011;49472;49.880;8.650;2022-08-21T12:22:40;12.30;;;11.32;;
63346;SDS011;49472;49.880;8.650;2022-08-21T12:25:07;11.35;;;10.55;;
63346;SDS011;49472;49.880;8.650;2022-08-21T12:27:52;12.00;;;11.10;;
63346;SDS011;49472;49.880;8.650;2022-08-21T12:30:40;11.07;;;10.38;;
63346;SDS011;49472;49.880;8.650;2022-08-21T12:33:04;13.10;;;11.68;;
63346;SDS011;49472;49.880;8.650;2022-08-21T12:38:20;10.50;;;9.80;;
63346;SDS011;49472;49.880;8.650;2022-08-21T12:46:02;11.18;;;10.30;;
63346;SDS011;49472;49.880;8.650;2022-08-21T12:48:33;11.05;;;10.27;;
63346;SDS011;49472;49.880;8.650;2022-08-21T12:56:03;10.95;;;10.13;;
63346;SDS011;49472;49.880;8.650;2022-08-21T12:58:29;10.90;;;10.00;;
63346;SDS011;49472;49.880;8.650;2022-08-21T13:03:26;10.93;;;9.88;;
63346;SDS011;49472;49.880;8.650;2022-08-21T13:05:52;10.60;;;9.90;;
63346;SDS011;49472;49.880;8.650;2022-08-21T13:08:18;10.93;;;9.90;;
63346;SDS011;49472;49.880;8.650;2022-08-21T13:10:44;11.15;;;10.20;;
63346;SDS011;49472;49.880;8.650;2022-08-21T13:13:14;11.20;;;10.40;;
63346;SDS011;49472;49.880;8.650;2022-08-21T13:15:41;10.48;;;9.75;;
63346;SDS011;49472;49.880;8.650;2022-08-21T13:18:07;10.45;;;9.75;;
63346;SDS011;49472;49.880;8.650;2022-08-21T13:20:33;10.05;;;9.25;;
63346;SDS011;49472;49.880;8.650;2022-08-21T13:23:00;10.05;;;9.38;;
63346;SDS011;49472;49.880;8.650;2022-08-21T13:25:26;10.43;;;9.60;;
63346;SDS011;49472;49.880;8.650;2022-08-21T13:28:08;11.02;;;10.00;;
63346;SDS011;49472;49.880;8.650;2022-08-21T13:30:34;10.15;;;9.45;;
63346;SDS011;49472;49.880;8.650;2022-08-21T13:33:05;9.02;;;8.52;;
63346;SDS011;49472;49.880;8.650;2022-08-21T13:35:34;10.25;;;9.57;;
63346;SDS011;49472;49.880;8.650;2022-08-21T13:38:00;9.85;;;9.15;;
63346;SDS011;49472;49.880;8.650;2022-08-21T13:43:30;9.07;;;8.57;;
63346;SDS011;49472;49.880;8.650;2022-08-21T13:45:56;9.20;;;8.40;;
63346;SDS011;49472;49.880;8.650;2022-08-21T13:48:22;10.45;;;9.35;;
63346;SDS011;49472;49.880;8.650;2022-08-21T13:50:48;9.18;;;8.60;;
63346;SDS011;49472;49.880;8.650;2022-08-21T13:55:46;8.90;;;8.10;;
63346;SDS011;49472;49.880;8.650;2022-08-21T13:58:12;8.75;;;8.13;;
63346;SDS011;49472;49.880;8.650;2022-08-21T14:00:44;9.13;;;8.25;;
63346;SDS011;49472;49.880;8.650;2022-08-21T14:03:11;9.82;;;9.13;;
63346;SDS011;49472;49.880;8.650;2022-08-21T14:05:42;8.77;;;8.00;;
63346;SDS011;49472;49.880;8.650;2022-08-21T14:08:13;8.02;;;7.40;;
63346;SDS011;49472;49.880;8.650;2022-08-21T14:10:43;8.48;;;7.88;;
63346;SDS011;49472;49.880;8.650;2022-08-21T14:13:22;9.32;;;7.40;;
63346;SDS011;49472;49.880;8.650;2022-08-21T14:15:53;8.63;;;8.07;;
63346;SDS011;49472;49.880;8.650;2022-08-21T14:18:19;8.20;;;7.68;;
63346;SDS011;49472;49.880;8.650;2022-08-21T14:20:45;7.65;;;7.15;;
63346;SDS011;49472;49.880;8.650;2022-08-21T14:23:10;8.48;;;6.97;;
63346;SDS011;49472;49.880;8.650;2022-08-21T14:25:40;7.72;;;6.97;;
63346;SDS011;49472;49.880;8.650;2022-08-21T14:30:32;6.33;;;6.00;;
63346;SDS011;49472;49.880;8.650;2022-08-21T14:32:58;6.43;;;5.80;;
63346;SDS011;49472;49.880;8.650;2022-08-21T14:35:24;6.82;;;6.32;;
63346;SDS011;49472;49.880;8.650;2022-08-21T14:37:49;6.85;;;6.45;;
63346;SDS011;49472;49.880;8.650;2022-08-21T14:40:18;6.90;;;6.50;;
63346;SDS011;49472;49.880;8.650;2022-08-21T14:42:43;7.93;;;6.35;;
63346;SDS011;49472;49.880;8.650;2022-08-21T14:45:19;7.38;;;6.88;;
63346;SDS011;49472;49.880;8.650;2022-08-21T14:47:46;6.65;;;5.97;;
63346;SDS011;49472;49.880;8.650;2022-08-21T14:50:11;6.38;;;6.15;;
63346;SDS011;49472;49.880;8.650;2022-08-21T14:52:37;6.32;;;5.88;;
63346;SDS011;49472;49.880;8.650;2022-08-21T14:55:03;6.55;;;6.22;;
63346;SDS011;49472;49.880;8.650;2022-08-21T14:57:29;6.80;;;6.47;;
63346;SDS011;49472;49.880;8.650;2022-08-21T14:59:55;6.32;;;5.93;;
63346;SDS011;49472;49.880;8.650;2022-08-21T15:02:20;7.35;;;6.80;;
63346;SDS011;49472;49.880;8.650;2022-08-21T15:04:45;24.87;;;7.87;;
63346;SDS011;49472;49.880;8.650;2022-08-21T15:07:10;39.53;;;7.63;;
63346;SDS011;49472;49.880;8.650;2022-08-21T15:09:36;6.53;;;6.23;;
63346;SDS011;49472;49.880;8.650;2022-08-21T15:12:01;6.55;;;6.22;;
63346;SDS011;49472;49.880;8.650;2022-08-21T15:14:29;6.18;;;5.88;;
63346;SDS011;49472;49.880;8.650;2022-08-21T15:16:55;6.85;;;6.28;;
63346;SDS011;49472;49.880;8.650;2022-08-21T15:19:21;6.20;;;5.80;;
63346;SDS011;49472;49.880;8.650;2022-08-21T15:21:46;5.88;;;5.60;;
63346;SDS011;49472;49.880;8.650;2022-08-21T15:24:12;7.15;;;6.40;;
63346;SDS011;49472;49.880;8.650;2022-08-21T15:26:37;7.20;;;6.60;;
63346;SDS011;49472;49.880;8.650;2022-08-21T15:29:02;6.53;;;6.13;;
63346;SDS011;49472;49.880;8.650;2022-08-21T15:31:29;6.50;;;6.10;;
63346;SDS011;49472;49.880;8.650;2022-08-21T15:33:54;6.90;;;6.30;;
63346;SDS011;49472;49.880;8.650;2022-08-21T15:36:20;6.28;;;5.97;;
63346;SDS011;49472;49.880;8.650;2022-08-21T15:38:45;7.10;;;6.60;;
63346;SDS011;49472;49.880;8.650;2022-08-21T15:41:11;7.43;;;6.93;;
63346;SDS011;49472;49.880;8.650;2022-08-21T15:43:40;7.43;;;7.03;;
63346;SDS011;49472;49.880;8.650;2022-08-21T15:46:06;6.82;;;6.60;;
63346;SDS011;49472;49.880;8.650;2022-08-21T15:48:34;8.32;;;7.63;;
63346;SDS011;49472;49.880;8.650;2022-08-21T15:50:59;8.30;;;7.70;;
63346;SDS011;49472;49.880;8.650;2022-08-21T15:53:24;7.30;;;6.83;;
63346;SDS011;49472;49.880;8.650;2022-08-21T15:55:49;7.53;;;6.97;;
63346;SDS011;49472;49.880;8.650;2022-08-21T15:58:15;7.60;;;7.10;;
63346;SDS011;49472;49.880;8.650;2022-08-21T16:00:41;6.82;;;6.50;;
63346;SDS011;49472;49.880;8.650;2022-08-21T16:03:09;9.55;;;8.18;;
63346;SDS011;49472;49.880;8.650;2022-08-21T16:05:36;7.03;;;6.63;;
63346;SDS011;49472;49.880;8.650;2022-08-21T16:08:02;8.13;;;7.45;;
63346;SDS011;49472;49.880;8.650;2022-08-21T16:10:27;7.28;;;6.88;;
63346;SDS011;49472;49.880;8.650;2022-08-21T16:12:57;6.70;;;6.30;;